Logo AVAMET
Benvolgut visitant, si us plau, ingressa Recuperar contrasenya
AVAMET paisatges

Vilallonga el Pla de la Llacuna

Dades diàries. Acumulats / Últims 30 dies disponibles

Data Temperatura (°C) Humitat rel. (%) Pressió rel. (hPa) Vent (km/h) Precipitació
Mínima Mitjana Màxima Amplitud
tèrmica
Mínima Mitjana Màxima Mínima Mitjana Màxima Predom. Mitjana Ràfega
màxima
Total
(mm)
Índex-n
Mínima Mitjana Màxima Mínima Mitjana Màxima n
0 a 1
P0 max
mm 5'
Dades mensuals acumulades fins l'últim dia disponible
01/2021 -0,2 4,0 9,9 7,3 4,9 11,0 18,9 19,1 20 66 99 1.002 1.016 1.028   6,5 85,3 191,6
Dades anuals acumulades fins l'últim dia disponible
2021 -0,2 4,0 9,9 7,3 4,9 11,0 18,9 19,1 20 66 99 1.002 1.016 1.028   6,5 85,3 191,6
Últims 30 dies disponibles
23-01-2021 7,1     10,2     14,7 7,6 55 65 72 1.006 1.013 1.015 O 15,2 72,4 0,0
22-01-2021 8,1     12,3     16,4 8,3 47 64 85 1.002 1.009 1.014 O 17,0 85,3 0,2
21-01-2021 9,9     12,6     15,7 5,8 53 67 78 1.012 1.014 1.015 O 13,0 59,5 0,0
20-01-2021 6,6     9,9     12,4 5,8 35 58 85 1.011 1.014 1.019 S 5,6 33,8 2,2 0,20
19-01-2021 5,6     10,7     18,1 12,5 40 65 84 1.019 1.023 1.027 S 2,1 16,1 0,0
18-01-2021 6,6     10,0     12,7 6,1 48 74 91 1.025 1.026 1.027 S 2,1 19,3 0,0
17-01-2021 8,0     13,6     18,9 10,9 20 32 49 1.023 1.025 1.027 OSO 5,6 30,6 0,0
16-01-2021 3,1     9,0     13,6 10,5 31 48 66 1.021 1.025 1.027 SO 3,8 30,6 0,0
15-01-2021 7,4     10,8     15,1 7,7 25 47 61 1.021 1.022 1.024 OSO 4,8 24,1 0,0
14-01-2021 4,4     9,2     13,9 9,5 32 47 66 1.021 1.023 1.026 SE 2,5 20,9 0,0
13-01-2021 3,4     7,6     12,6 9,2 31 49 68 1.025 1.026 1.028 ESE 1,4 17,7 0,0
12-01-2021 -0,2     5,8     12,6 12,8 33 56 90 1.024 1.026 1.028 SSO 2,8 19,3 0,0
11-01-2021 1,5     3,9     6,4 4,9 81 89 95 1.016 1.019 1.025 S 1,7 17,7 0,0
10-01-2021 0,9     3,8     4,9 4,0 76 92 97 1.007 1.011 1.016 SE 1,2 17,7 11,6 0,37 0,60
09-01-2021 2,4     3,8     5,4 3,0 96 99 99 1.004 1.005 1.007 ESE 4,5 30,6 39,6 0,37 1,20
08-01-2021 2,9     3,8     4,9 2,0 98 98 99 1.006 1.010 1.012 NE 7,6 33,8 88,2 0,33 1,60
07-01-2021 2,6     3,3     5,2 2,6 83 95 98 1.009 1.012 1.013 NE 3,4 22,5 49,8 0,32 0,50
06-01-2021 -0,2     3,7     7,3 7,5 55 70 85 1.011 1.013 1.015 SSE 1,4 14,5 0,0
05-01-2021 1,9     4,5     9,2 7,3 36 59 76 1.010 1.011 1.012 OSO 6,8 37,0 0,0
04-01-2021 2,9     4,9     8,3 5,4 54 65 72 1.009 1.011 1.013 O 12,2 40,2 0,0
03-01-2021 1,6     4,6     8,7 7,1 45 53 60 1.010 1.012 1.014 O 12,4 41,8 0,0
02-01-2021 2,3     4,0     5,8 3,5 53 59 69 1.007 1.009 1.011 OSO 12,0 45,1 0,0
01-01-2021 3,4     6,7     9,6 6,2 47 66 77 1.004 1.007 1.009 O 10,1 40,2 0,0
31-12-2020 3,7     7,7     12,2 8,5 43 57 68 1.010 1.014 1.017 O 12,8 45,1 0,0
30-12-2020 3,9     6,8     10,0 6,1 43 55 65 1.009 1.014 1.017 O 13,3 43,5 0,0
29-12-2020 4,7     6,8     9,8 5,1 54 66 75 1.003 1.005 1.009 OSO 16,5 54,7 0,0
28-12-2020 6,5     9,5     12,8 6,3 24 51 79 996 1.001 1.004 O 15,6 64,4 1,4
27-12-2020 2,6     9,3     15,1 12,5 23 38 58 1.002 1.012 1.022 OSO 10,2 49,9 0,0
26-12-2020 2,5     6,0     10,3 7,8 27 42 54 1.022 1.024 1.026 O 6,9 25,7 0,0
25-12-2020 3,7     8,0     10,3 6,6 33 64 94 1.020 1.022 1.026 SSE 3,7 30,6 0,0
Últims 13 mesos disponibles
12/2020 2,5 6,8 13,1 10,4 8,2 14,2 20,4 17,9 38 66 92 997 1.014 1.027 O 8,2 66,0 14,0
11/2020 6,1 10,5 15,6 13,5 11,9 17,1 26,3 20,2 55 85 100 1.006 1.021 1.029 SE 2,4 37,0 168,2
10/2020 9,0 12,5 18,4 16,9 16,5 21,6 29,0 20,0 41 62 88 997 1.016 1.025 OSO 5,3 67,6 7,0
09/2020 12,1 16,4 21,4 20,7 20,7 25,3 29,7 17,6 42 68 92 1.010 1.016 1.022 ESE 3,0 46,7 33,6
08/2020 14,5 20,1 25,1 25,1 22,2 30,3 37,9 23,4 35 69 92 1.003 1.013 1.018 ESE 2,6 41,8 21,6
07/2020 16,3 18,8 22,1 23,6 24,8 28,9 34,8 18,5 56 75 90 1.010 1.015 1.019 E 2,3 30,6 18,0
06/2020 11,7 15,8 19,9 21,1 18,0 26,5 30,2 18,5 47 70 92 1.004 1.013 1.020 SE 3,3 66,0 35,0
05/2020 10,1 13,8 18,7 18,6 15,2 23,5 30,2 20,1 50 70 92 1.004 1.016 1.026 SE 3,6 57,9 134,2
04/2020 5,8 9,5 14,9 12,8 11,4 16,6 22,5 16,7 51 82 99 1.005 1.015 1.025 E 3,7 49,9 128,6
03/2020 4,8 8,5 15,2 11,7 7,2 15,5 24,9 20,1 41 76 99 1.006 1.016 1.026 ENE 5,5 91,7 130,6
02/2020 4,2 9,3 14,4 13,7 11,4 18,5 24,3 20,1 34 66 96 1.013 1.025 1.032 O 4,7 59,5 8,6
01/2020 3,0 6,2 11,9 9,5 8,4 13,6 18,4 15,4 43 78 99 1.015 1.025 1.032 SSE 5,1 69,2 463,2
12/2019 3,9 8,9 15,8 12,2 9,2 15,6 22,7 18,8 35 71 98 1.002 1.018 1.032 O 7,3 93,3 397,4
Tots els anys disponibles
2020 2,5 12,4 25,1 16,5 7,2 21,0 37,9 35,4 34 72 100 997 1.017 1.032 ESE 4,2 91,7 1.162,6
2019 1,1 12,1 26,3 16,4 8,9 20,8 38,6 37,5 28 67 100 995 1.016 1.033 E 5,0 93,3 1.771,2
Temperatura (°C)
Humitat relativa (%)
Velocitat del vent i ràfega màxima (km/h)
Direcció del vent (°)
Pressió (hPa)
Precipitació (mm)
Nota sobre les dades: s'avisa a l'usuari de la provisionalitat i no oficialitat d'aquestes dades
Logo AVAMET blanc
Web allotjada a Sollutia
Llicència de Creative CommonsLa web d'AVAMET i els seus continguts estan subjectes a una llicència de
Reconeixement - No Comercial - Compartir igual
Avís legal - Política de privacitat - Política de cookies
NOVES ESTACIONS: Dénia - la Xara (Soci), Rossell - la Vila (Soci), Onda - CR Cota 220 (Soci), Artana (Ajuntament/Soci), Sax (Soci), Benicarló - Sant Gregori (Soci), Riba-roja de Túria - la Reva (Soci), Castielfabib - Arroyo Cerezo (Pròpia d'AVAMET), Tavernes de la Valldigna - Ull del Bou/Cambro (Soci), Chella - Casa Conde (Soci), El Genovés (Inforatge) - - -